Time;durP1;ratioP1;P1;durP2;ratioP2;P2;SDS_P1;SDS_P2;PMS_P1;PMS_P2;Temp;Humidity;BMP_temperature;BMP_pressure;BME280_temperature;BME280_humidity;BME280_pressure;Samples;Min_cycle;Max_cycle;Signal;HPM_P1;HPM_P2
2023/01/21 00:01:10;;;;;;;18.58;12.98;;;2.10;99.90;;;;;;6151452;23;20110;-92
2023/01/21 00:03:35;;;;;;;20.60;12.27;;;2.00;99.90;;;;;;6152019;23;20013;-91
2023/01/21 00:06:01;;;;;;;20.17;12.20;;;1.30;99.90;;;;;;6152007;23;19997;-90
2023/01/21 00:08:27;;;;;;;19.85;14.15;;;2.30;99.90;;;;;;6151920;23;20505;-92
2023/01/21 00:10:53;;;;;;;18.50;13.05;;;1.70;99.90;;;;;;6127265;23;20001;-92
2023/01/21 00:13:19;;;;;;;19.15;12.13;;;1.50;99.90;;;;;;6151895;23;20005;-90
2023/01/21 00:15:45;;;;;;;18.02;12.60;;;1.50;99.90;;;;;;6151929;23;20052;-90
2023/01/21 00:18:11;;;;;;;15.73;11.35;;;1.80;99.90;;;;;;6151620;23;19998;-90
2023/01/21 00:20:37;;;;;;;18.10;10.70;;;1.80;99.90;;;;;;6125612;23;20012;-93
2023/01/21 00:23:03;;;;;;;15.80;10.80;;;1.50;99.90;;;;;;6125989;23;20005;-92
2023/01/21 00:25:29;;;;;;;16.50;11.65;;;2.00;99.90;;;;;;6154879;23;20006;-89
2023/01/21 00:27:55;;;;;;;17.38;11.43;;;1.40;99.90;;;;;;6168637;23;20001;-88
2023/01/21 00:30:21;;;;;;;16.52;11.88;;;1.40;99.90;;;;;;6144611;23;20012;-89
2023/01/21 00:32:47;;;;;;;18.10;11.73;;;1.60;99.90;;;;;;6167717;23;20001;-91
2023/01/21 00:35:13;;;;;;;17.77;11.82;;;1.70;99.90;;;;;;6126984;23;20068;-88
2023/01/21 00:37:39;;;;;;;19.40;13.02;;;1.50;99.90;;;;;;6126594;23;20040;-92
2023/01/21 00:40:05;;;;;;;26.08;16.30;;;1.70;99.90;;;;;;6126133;23;20012;-93
2023/01/21 00:42:31;;;;;;;26.70;15.18;;;1.40;99.90;;;;;;6126107;23;20009;-93
2023/01/21 00:44:57;;;;;;;23.73;14.40;;;1.60;99.90;;;;;;6151824;23;20029;-91
2023/01/21 00:47:23;;;;;;;19.17;13.27;;;1.90;99.90;;;;;;6126566;23;20056;-91
2023/01/21 00:49:49;;;;;;;20.08;13.18;;;1.60;99.90;;;;;;6151535;23;20438;-93
2023/01/21 00:52:15;;;;;;;18.90;12.70;;;1.90;99.90;;;;;;6152335;23;20025;-93
2023/01/21 00:54:41;;;;;;;20.20;13.68;;;1.90;99.90;;;;;;6125589;23;20009;-91
2023/01/21 00:57:07;;;;;;;26.55;14.05;;;1.90;99.90;;;;;;6151335;23;20010;-89
2023/01/21 00:59:33;;;;;;;20.52;14.00;;;1.50;99.90;;;;;;6151555;23;19998;-93
2023/01/21 01:01:58;;;;;;;20.63;13.68;;;1.70;99.90;;;;;;6150910;23;20032;-88
2023/01/21 01:04:24;;;;;;;14.43;10.48;;;2.00;99.90;;;;;;6126457;23;20335;-92
2023/01/21 01:06:50;;;;;;;16.17;10.35;;;1.50;99.90;;;;;;6151972;23;20439;-92
2023/01/21 01:09:16;;;;;;;15.45;10.07;;;1.70;99.90;;;;;;6151588;23;20005;-91
2023/01/21 01:11:42;;;;;;;12.90;9.57;;;1.50;99.90;;;;;;6151890;23;20028;-91
2023/01/21 01:14:07;;;;;;;11.98;9.93;;;1.70;99.90;;;;;;6151665;23;20084;-93
2023/01/21 01:16:33;;;;;;;17.02;9.65;;;2.10;99.90;;;;;;6151301;23;20083;-93
2023/01/21 01:18:59;;;;;;;14.85;9.70;;;1.80;99.90;;;;;;6151395;23;20002;-90
2023/01/21 01:21:24;;;;;;;15.10;9.70;;;1.40;99.90;;;;;;6152958;23;20005;-92
2023/01/21 01:23:51;;;;;;;10.52;8.75;;;1.60;99.90;;;;;;6152890;23;20004;-90
2023/01/21 01:26:19;;;;;;;12.52;9.82;;;2.00;99.90;;;;;;6153518;23;20438;-92
2023/01/21 01:28:45;;;;;;;13.90;9.25;;;1.60;99.90;;;;;;6127470;23;20006;-92
2023/01/21 01:31:13;;;;;;;13.00;9.65;;;1.50;99.90;;;;;;6153241;23;20009;-91
2023/01/21 01:33:39;;;;;;;12.35;9.07;;;1.30;99.90;;;;;;6127378;23;20005;-88
2023/01/21 01:36:09;;;;;;;9.95;7.97;;;1.40;99.90;;;;;;6153522;23;20016;-93
2023/01/21 01:38:34;;;;;;;15.38;8.40;;;1.40;99.90;;;;;;6127538;23;20052;-94
2023/01/21 01:41:00;;;;;;;12.80;8.57;;;1.40;99.90;;;;;;6127489;23;20010;-89
2023/01/21 01:43:52;;;;;;;10.07;7.82;;;1.50;99.90;;;;;;6154303;23;20025;-90
2023/01/21 01:46:18;;;;;;;15.25;8.10;;;1.40;99.90;;;;;;6101412;23;20006;-92
2023/01/21 01:48:48;;;;;;;9.73;7.68;;;2.30;99.90;;;;;;6153485;23;20010;-94
2023/01/21 01:51:17;;;;;;;13.35;8.27;;;1.60;99.90;;;;;;6127610;23;20002;-93
2023/01/21 01:53:44;;;;;;;11.77;8.95;;;1.50;99.90;;;;;;6127397;23;20010;-91
2023/01/21 01:56:10;;;;;;;14.10;8.30;;;1.50;99.90;;;;;;6127125;23;20351;-91
2023/01/21 01:58:37;;;;;;;8.65;7.28;;;2.00;99.90;;;;;;6126673;23;20438;-92
2023/01/21 02:01:03;;;;;;;14.15;7.88;;;1.80;99.90;;;;;;6126807;23;20006;-89
2023/01/21 02:03:49;;;;;;;11.48;8.20;;;1.60;99.90;;;;;;6154224;23;20001;-93
2023/01/21 02:06:17;;;;;;;9.35;7.18;;;2.00;99.90;;;;;;6151760;23;20434;-92
2023/01/21 02:08:45;;;;;;;10.55;7.72;;;1.70;99.90;;;;;;6151899;23;20550;-91
2023/01/21 02:11:13;;;;;;;15.43;8.43;;;1.60;99.90;;;;;;6126608;23;20048;-92
2023/01/21 02:13:41;;;;;;;9.35;6.82;;;1.40;99.90;;;;;;6153046;23;20002;-91
2023/01/21 02:16:31;;;;;;;12.30;7.57;;;1.90;99.90;;;;;;6152044;23;20045;-92
2023/01/21 02:19:51;;;;;;;11.18;7.38;;;1.60;99.90;;;;;;6127925;23;20006;-92
2023/01/21 02:22:21;;;;;;;9.70;7.32;;;1.50;99.90;;;;;;6062917;23;20379;-91
2023/01/21 02:25:20;;;;;;;12.30;7.03;;;1.50;99.90;;;;;;6116262;23;20005;-88
2023/01/21 02:28:01;;;;;;;12.40;7.63;;;1.60;99.90;;;;;;6152599;23;20430;-90
2023/01/21 02:30:33;;;;;;;9.10;7.13;;;1.50;99.90;;;;;;6127229;23;20373;-91
2023/01/21 02:33:02;;;;;;;9.43;7.05;;;1.70;99.90;;;;;;6153522;23;20001;-94
2023/01/21 02:35:41;;;;;;;10.93;7.78;;;1.50;99.90;;;;;;6152939;23;20072;-92
2023/01/21 02:38:10;;;;;;;11.15;7.63;;;1.50;99.90;;;;;;6126665;23;20006;-91
2023/01/21 02:40:39;;;;;;;10.55;7.97;;;1.80;99.90;;;;;;6126747;23;20032;-93
2023/01/21 02:43:17;;;;;;;14.48;8.20;;;1.50;99.90;;;;;;6127096;23;20084;-91
2023/01/21 02:45:58;;;;;;;11.68;8.10;;;1.70;99.90;;;;;;6152774;23;20008;-92
2023/01/21 02:48:53;;;;;;;13.23;8.27;;;1.40;99.90;;;;;;6126353;23;20074;-90
2023/01/21 02:51:19;;;;;;;11.30;7.85;;;1.60;99.90;;;;;;6152686;23;20442;-91
2023/01/21 02:53:44;;;;;;;9.95;6.90;;;1.30;99.90;;;;;;6126586;23;20048;-89
2023/01/21 02:56:14;;;;;;;13.98;7.97;;;1.80;99.90;;;;;;6152170;23;20009;-90
2023/01/21 02:58:47;;;;;;;13.77;7.38;;;1.60;99.90;;;;;;6152282;23;20053;-92
2023/01/21 03:01:39;;;;;;;11.63;7.97;;;1.60;99.90;;;;;;6155317;23;20009;-90
2023/01/21 03:04:29;;;;;;;10.00;7.53;;;1.30;99.90;;;;;;6172289;23;20009;-90
2023/01/21 03:07:10;;;;;;;12.25;7.63;;;1.40;99.90;;;;;;6140387;23;20002;-90
2023/01/21 03:09:36;;;;;;;14.15;7.78;;;1.40;99.90;;;;;;6161167;23;20005;-89
2023/01/21 03:12:33;;;;;;;13.65;7.82;;;1.70;99.90;;;;;;6154350;23;20424;-92
2023/01/21 03:18:02;;;;;;;12.88;8.00;;;1.40;99.90;;;;;;6152478;23;20020;-93
2023/01/21 03:20:41;;;;;;;12.50;8.15;;;1.30;99.90;;;;;;6152317;23;20025;-88
2023/01/21 03:23:18;;;;;;;14.70;7.93;;;1.30;99.90;;;;;;6126128;23;20012;-91
2023/01/21 03:25:46;;;;;;;14.35;8.43;;;1.40;99.90;;;;;;6154856;23;20002;-92
2023/01/21 03:28:16;;;;;;;9.07;7.50;;;1.60;99.90;;;;;;6154789;23;20005;-93
2023/01/21 03:30:46;;;;;;;15.25;8.38;;;1.70;99.90;;;;;;6132539;23;20011;-91
2023/01/21 03:33:14;;;;;;;12.55;8.05;;;1.70;99.90;;;;;;6154778;23;20028;-90
2023/01/21 03:35:44;;;;;;;14.83;8.80;;;1.40;99.90;;;;;;6157006;23;20013;-89
2023/01/21 03:38:33;;;;;;;15.63;8.60;;;1.60;99.90;;;;;;6155139;23;20272;-91
2023/01/21 03:41:12;;;;;;;10.82;8.48;;;1.20;99.90;;;;;;6125818;23;20014;-88
2023/01/21 03:43:38;;;;;;;;;;;1.80;99.90;;;;;;6153116;23;20008;-89
2023/01/21 03:46:23;;;;;;;12.77;8.18;;;1.10;99.90;;;;;;6152978;23;19985;-90
2023/01/21 03:48:58;;;;;;;10.52;8.45;;;1.10;99.90;;;;;;6127753;23;20390;-89
2023/01/21 03:51:35;;;;;;;14.88;8.55;;;2.00;99.90;;;;;;6127719;23;20012;-93
2023/01/21 03:54:01;;;;;;;14.57;8.57;;;1.10;99.90;;;;;;6154857;23;20554;-93
2023/01/21 03:56:28;;;;;;;15.48;8.65;;;1.40;99.90;;;;;;6151979;23;20061;-90
2023/01/21 03:58:54;;;;;;;16.02;8.60;;;1.10;99.90;;;;;;6152229;23;20072;-91
2023/01/21 04:01:20;;;;;;;14.50;8.98;;;1.10;99.90;;;;;;6152385;23;20010;-88
2023/01/21 04:03:46;;;;;;;12.68;8.43;;;1.10;99.90;;;;;;6151839;23;20331;-88
2023/01/21 04:06:21;;;;;;;15.75;8.98;;;1.00;99.90;;;;;;6151798;23;20001;-89
2023/01/21 04:08:47;;;;;;;11.85;8.52;;;1.10;99.90;;;;;;6151853;23;20131;-91
2023/01/21 04:11:13;;;;;;;12.52;8.50;;;1.20;99.90;;;;;;6152025;23;20016;-91
2023/01/21 04:13:39;;;;;;;15.75;9.02;;;1.00;99.90;;;;;;6151859;23;20081;-93
2023/01/21 04:16:05;;;;;;;10.80;8.02;;;1.10;99.90;;;;;;6159218;23;20462;-93
2023/01/21 04:18:31;;;;;;;15.45;8.23;;;0.90;99.90;;;;;;6157561;23;20001;-93
2023/01/21 04:20:57;;;;;;;10.27;7.80;;;1.00;99.90;;;;;;6155879;23;20037;-91
2023/01/21 04:23:23;;;;;;;12.38;8.32;;;0.90;99.90;;;;;;6152072;23;20082;-92
2023/01/21 04:25:49;;;;;;;12.27;8.13;;;0.80;99.90;;;;;;6125291;23;20046;-92
2023/01/21 04:28:16;;;;;;;14.07;8.25;;;0.60;99.90;;;;;;6149455;23;20084;-90
2023/01/21 04:30:41;;;;;;;13.43;7.82;;;0.80;99.90;;;;;;6148190;23;20011;-93
2023/01/21 04:33:07;;;;;;;13.23;7.70;;;1.00;99.90;;;;;;6125332;23;20029;-89
2023/01/21 04:35:36;;;;;;;14.02;8.18;;;0.90;99.90;;;;;;6125457;23;20014;-89
2023/01/21 04:38:01;;;;;;;;;;;0.80;99.90;;;;;;6125934;23;20516;-91
2023/01/21 04:40:27;;;;;;;11.52;6.72;;;0.40;99.90;;;;;;6151234;23;19901;-91
2023/01/21 04:42:53;;;;;;;10.88;6.97;;;0.90;99.90;;;;;;6151053;23;20001;-89
2023/01/21 04:45:19;;;;;;;11.30;6.97;;;1.30;99.90;;;;;;6151329;23;20069;-90
2023/01/21 04:47:45;;;;;;;16.92;7.60;;;1.30;99.90;;;;;;6152039;23;20438;-93
2023/01/21 04:50:16;;;;;;;15.05;7.32;;;1.30;99.90;;;;;;6157249;23;20076;-91
2023/01/21 04:52:42;;;;;;;9.90;6.68;;;1.20;99.90;;;;;;6107334;23;20005;-91
2023/01/21 04:55:09;;;;;;;13.07;6.88;;;1.50;99.90;;;;;;6152475;23;20002;-90
2023/01/21 04:57:36;;;;;;;9.87;6.77;;;1.20;99.90;;;;;;6121155;23;20022;-90
2023/01/21 05:00:05;;;;;;;12.95;7.00;;;1.70;99.90;;;;;;6120532;23;20009;-94
2023/01/21 05:02:32;;;;;;;13.93;7.05;;;1.40;99.90;;;;;;6121870;23;20006;-91
2023/01/21 05:04:57;;;;;;;10.57;7.03;;;1.20;99.90;;;;;;6119891;23;20006;-92
2023/01/21 05:07:23;;;;;;;9.73;6.35;;;1.30;99.90;;;;;;6119701;23;20102;-92
2023/01/21 05:09:49;;;;;;;14.00;6.35;;;1.20;99.90;;;;;;6122330;23;20508;-91
2023/01/21 05:12:14;;;;;;;11.55;6.28;;;1.90;99.90;;;;;;6122291;23;20037;-91
2023/01/21 05:14:40;;;;;;;10.95;6.93;;;1.80;99.90;;;;;;6122840;23;20005;-88
2023/01/21 05:17:06;;;;;;;12.02;6.57;;;1.30;99.90;;;;;;6122781;23;20053;-91
2023/01/21 05:19:32;;;;;;;9.60;6.53;;;1.70;99.90;;;;;;6120652;23;20072;-89
2023/01/21 05:21:57;;;;;;;13.40;6.75;;;2.20;99.90;;;;;;6121982;23;20013;-94
2023/01/21 05:24:23;;;;;;;10.88;6.72;;;1.80;99.90;;;;;;6122270;23;20073;-90
2023/01/21 05:26:49;;;;;;;13.63;7.05;;;1.50;99.90;;;;;;6122342;23;20348;-93
2023/01/21 05:29:15;;;;;;;19.98;7.18;;;1.80;99.90;;;;;;6122233;23;20028;-93
2023/01/21 05:31:42;;;;;;;9.00;6.32;;;1.30;99.90;;;;;;6121012;23;20006;-91
2023/01/21 05:34:15;;;;;;;9.20;6.60;;;1.60;99.90;;;;;;6125572;23;20002;-93
2023/01/21 05:36:42;;;;;;;8.70;6.70;;;1.40;99.90;;;;;;6123879;23;20020;-91
2023/01/21 05:39:07;;;;;;;16.77;6.93;;;1.40;99.90;;;;;;6133758;23;19998;-89
2023/01/21 05:41:34;;;;;;;10.38;6.20;;;1.60;99.90;;;;;;6143067;23;20060;-89
2023/01/21 05:44:19;;;;;;;17.20;6.38;;;1.40;99.90;;;;;;6139559;23;20041;-91
2023/01/21 05:46:48;;;;;;;12.45;5.85;;;2.00;99.90;;;;;;6139269;23;20002;-89
2023/01/21 05:49:19;;;;;;;9.95;5.63;;;2.20;99.90;;;;;;6138145;23;20006;-90
2023/01/21 05:51:45;;;;;;;11.90;5.53;;;1.40;99.90;;;;;;6138148;23;20338;-89
2023/01/21 05:54:19;;;;;;;11.48;5.68;;;1.80;99.90;;;;;;6141635;23;19993;-88
2023/01/21 05:56:45;;;;;;;12.55;6.38;;;2.20;99.90;;;;;;6141031;23;20021;-88
2023/01/21 05:59:18;;;;;;;18.52;6.15;;;2.00;99.90;;;;;;6141064;23;20003;-90
2023/01/21 06:01:44;;;;;;;14.82;6.10;;;1.30;99.90;;;;;;6144697;23;20025;-87
2023/01/21 06:04:11;;;;;;;11.82;5.78;;;2.10;99.90;;;;;;6141835;23;20030;-89
2023/01/21 06:06:39;;;;;;;12.23;5.95;;;2.10;99.90;;;;;;6143051;23;20072;-91
2023/01/21 06:09:27;;;;;;;11.63;5.97;;;1.70;99.90;;;;;;6143027;23;20009;-90
2023/01/21 06:12:03;;;;;;;13.90;5.93;;;1.40;99.90;;;;;;6134285;23;20021;-91
2023/01/21 06:14:29;;;;;;;11.75;5.43;;;2.40;99.90;;;;;;6139061;23;20002;-89
2023/01/21 06:17:25;;;;;;;9.20;5.60;;;2.90;99.90;;;;;;6145485;23;20021;-90
2023/01/21 06:19:51;;;;;;;13.55;6.10;;;2.50;99.90;;;;;;6143391;23;20010;-92
2023/01/21 06:22:19;;;;;;;9.43;5.70;;;1.30;99.90;;;;;;6139644;23;20002;-93
2023/01/21 06:24:46;;;;;;;10.52;5.95;;;1.60;99.90;;;;;;6125168;23;20056;-89
2023/01/21 06:27:14;;;;;;;12.88;6.07;;;2.10;99.90;;;;;;6131566;23;20435;-90
2023/01/21 06:29:42;;;;;;;14.07;5.95;;;1.90;99.90;;;;;;6134032;23;20014;-90
2023/01/21 06:32:12;;;;;;;9.03;5.47;;;2.80;99.90;;;;;;6128715;23;20076;-90
2023/01/21 06:34:38;;;;;;;16.88;5.25;;;2.20;99.90;;;;;;6131186;23;20013;-91
2023/01/21 06:37:05;;;;;;;10.73;5.22;;;1.90;99.90;;;;;;6132852;23;20014;-88
2023/01/21 06:39:37;;;;;;;13.68;5.57;;;1.30;99.90;;;;;;6139971;23;20008;-88
2023/01/21 06:42:06;;;;;;;11.40;5.57;;;1.30;99.90;;;;;;6139391;23;20006;-89
2023/01/21 06:44:37;;;;;;;9.48;4.72;;;1.30;99.90;;;;;;6136453;23;20010;-89
2023/01/21 06:47:08;;;;;;;7.30;5.13;;;1.70;99.90;;;;;;6137047;23;20070;-89
2023/01/21 06:49:40;;;;;;;10.27;5.40;;;1.20;99.90;;;;;;6131990;23;20008;-89
2023/01/21 06:52:08;;;;;;;10.57;4.75;;;1.80;99.90;;;;;;6134057;23;20013;-91
2023/01/21 06:54:47;;;;;;;11.63;5.10;;;1.80;99.90;;;;;;6135058;23;20078;-89
2023/01/21 06:57:39;;;;;;;13.70;5.25;;;1.30;99.90;;;;;;6148894;23;20021;-88
2023/01/21 07:00:45;;;;;;;12.38;5.18;;;2.50;99.90;;;;;;6166271;23;20001;-92
2023/01/21 07:03:21;;;;;;;10.65;4.78;;;1.30;99.90;;;;;;6139147;23;20001;-90
2023/01/21 07:05:47;;;;;;;10.73;4.57;;;1.40;99.90;;;;;;6164163;23;20036;-90
2023/01/21 07:08:14;;;;;;;11.10;4.80;;;1.90;99.90;;;;;;6138722;23;20006;-90
2023/01/21 07:10:40;;;;;;;10.13;5.47;;;2.90;99.90;;;;;;6162230;23;20282;-90
2023/01/21 07:13:09;;;;;;;11.05;4.97;;;1.30;99.90;;;;;;6138055;23;20006;-90
2023/01/21 07:15:48;;;;;;;;;;;;;;;;;;;;;
2023/01/21 07:18:17;;;;;;;11.20;4.78;;;2.40;99.90;;;;;;6169698;23;20017;-90
2023/01/21 07:20:46;;;;;;;6.50;4.60;;;1.70;99.90;;;;;;6120281;23;20005;-90
2023/01/21 07:24:04;;;;;;;;;;;;;;;;;;;;;
2023/01/21 07:27:10;;;;;;;;;;;;;;;;;;;;;
2023/01/21 07:29:47;;;;;;;12.93;4.75;;;1.90;99.90;;;;;;6158909;23;20080;-92
2023/01/21 07:32:14;;;;;;;13.57;4.80;;;1.40;99.90;;;;;;6158577;23;20029;-89
2023/01/21 07:34:53;;;;;;;10.63;4.55;;;2.70;99.90;;;;;;6165490;23;20447;-88
2023/01/21 07:37:20;;;;;;;10.30;4.90;;;1.30;99.90;;;;;;6165374;23;20021;-88
2023/01/21 07:39:54;;;;;;;10.32;4.43;;;1.30;99.90;;;;;;6163446;23;20001;-89
2023/01/21 07:42:26;;;;;;;10.85;5.00;;;1.20;99.90;;;;;;6166434;23;20423;-88
2023/01/21 07:44:52;;;;;;;9.52;4.28;;;2.30;99.90;;;;;;6166778;23;20001;-88
2023/01/21 07:47:23;;;;;;;8.48;4.90;;;1.50;99.90;;;;;;6165252;23;20005;-88
2023/01/21 07:49:48;;;;;;;7.70;4.50;;;1.30;99.90;;;;;;6132265;23;20001;-89
2023/01/21 07:52:17;;;;;;;13.63;4.75;;;1.90;99.90;;;;;;6162302;23;20489;-88
2023/01/21 07:54:43;;;;;;;11.23;4.57;;;1.20;99.90;;;;;;6135255;23;20021;-89
2023/01/21 07:57:11;;;;;;;14.63;4.50;;;2.20;99.90;;;;;;6130577;23;20083;-88
2023/01/21 08:00:02;;;;;;;11.77;4.72;;;1.60;99.90;;;;;;6134470;23;20002;-93
2023/01/21 08:02:52;;;;;;;;;;;;;;;;;;;;;
2023/01/21 08:11:38;;;;;;;10.77;4.05;;;1.40;99.90;;;;;;6096160;23;20018;-89
2023/01/21 08:14:24;;;;;;;13.70;4.63;;;1.10;99.90;;;;;;6095114;23;20011;-90
2023/01/21 08:16:52;;;;;;;15.75;4.90;;;1.50;99.90;;;;;;6092029;23;20019;-91
2023/01/21 08:19:18;;;;;;;9.95;4.88;;;1.80;99.90;;;;;;6096938;23;20012;-88
2023/01/21 08:21:44;;;;;;;10.50;4.78;;;2.60;99.90;;;;;;6099604;23;20367;-89
2023/01/21 08:24:32;;;;;;;14.40;4.85;;;2.00;99.90;;;;;;6131527;23;20064;-90
2023/01/21 08:26:59;;;;;;;10.23;5.15;;;1.10;99.90;;;;;;6078510;23;20032;-88
2023/01/21 08:29:35;;;;;;;13.75;6.68;;;2.20;99.90;;;;;;6103281;23;20038;-88
2023/01/21 08:32:02;;;;;;;16.33;9.13;;;1.90;99.90;;;;;;6100559;23;20003;-88
2023/01/21 08:34:28;;;;;;;27.42;13.82;;;1.10;99.90;;;;;;6077745;23;20002;-88
2023/01/21 08:36:54;;;;;;;14.50;9.30;;;1.80;99.90;;;;;;6117006;23;20054;-88
2023/01/21 08:39:20;;;;;;;13.82;7.15;;;2.00;99.90;;;;;;6114605;23;20137;-88
2023/01/21 08:41:46;;;;;;;14.30;7.75;;;2.10;99.90;;;;;;6108065;23;20014;-88
2023/01/21 08:44:19;;;;;;;13.45;6.03;;;1.80;99.90;;;;;;6110191;23;20546;-88
2023/01/21 08:46:45;;;;;;;12.45;6.03;;;1.80;99.90;;;;;;6100046;23;20014;-89
2023/01/21 08:49:11;;;;;;;14.85;5.60;;;2.80;99.90;;;;;;6102530;23;20013;-90
2023/01/21 08:51:53;;;;;;;11.38;5.63;;;1.90;99.90;;;;;;6100607;23;20018;-91
2023/01/21 08:54:23;;;;;;;12.48;5.38;;;1.30;99.90;;;;;;6056588;23;20040;-89
2023/01/21 08:56:52;;;;;;;10.85;5.50;;;1.30;99.90;;;;;;6088158;23;20489;-89
2023/01/21 08:59:29;;;;;;;7.75;4.93;;;1.40;99.90;;;;;;6163984;23;20002;-88
2023/01/21 09:01:57;;;;;;;13.23;5.13;;;1.50;99.90;;;;;;6133285;23;20008;-88
2023/01/21 09:04:27;;;;;;;;;;;1.90;99.90;;;;;;6157426;23;20014;-89
2023/01/21 09:06:53;;;;;;;11.68;6.25;;;1.70;99.90;;;;;;6132983;23;19907;-88
2023/01/21 09:09:19;;;;;;;11.68;5.63;;;2.80;99.90;;;;;;6135576;23;20064;-91
2023/01/21 09:11:46;;;;;;;11.68;6.20;;;2.50;99.90;;;;;;6161085;23;20013;-88
2023/01/21 09:14:16;;;;;;;15.88;6.60;;;3.20;99.90;;;;;;6158881;23;20462;-88
2023/01/21 09:16:46;;;;;;;17.83;6.15;;;2.50;99.90;;;;;;6132631;23;20100;-89
2023/01/21 09:19:19;;;;;;;10.52;5.90;;;2.90;99.90;;;;;;6115785;23;20006;-88
2023/01/21 09:21:54;;;;;;;13.25;6.00;;;3.10;99.90;;;;;;6132469;23;20088;-90
2023/01/21 09:28:20;;;;;;;11.15;6.50;;;2.10;99.90;;;;;;6091860;23;20005;-90
2023/01/21 09:30:47;;;;;;;13.88;6.57;;;3.30;99.90;;;;;;6145663;23;20013;-91
2023/01/21 09:33:44;;;;;;;;;;;;;;;;;;;;;
2023/01/21 09:36:19;;;;;;;17.42;7.00;;;3.40;99.90;;;;;;6152184;23;20506;-90
2023/01/21 09:39:03;;;;;;;15.52;6.95;;;1.80;99.90;;;;;;6127316;23;20009;-88
2023/01/21 09:41:50;;;;;;;;;;;;;;;;;;;;;
2023/01/21 09:44:45;;;;;;;;;;;;;;;;;;;;;
2023/01/21 09:50:30;;;;;;;22.00;9.10;;;2.90;99.90;;;;;;6146332;23;20002;-90
2023/01/21 09:53:21;;;;;;;13.32;8.95;;;3.00;99.90;;;;;;6130789;23;20002;-90
2023/01/21 09:56:06;;;;;;;;;;;;;;;;;;;;;
2023/01/21 09:58:55;;;;;;;18.95;9.35;;;3.20;99.90;;;;;;6154954;23;20404;-91
2023/01/21 10:01:40;;;;;;;;;;;;;;;;;;;;;
2023/01/21 10:04:41;;;;;;;;;;;;;;;;;;;;;
2023/01/21 10:08:16;;;;;;;18.38;8.93;;;3.50;99.90;;;;;;6142514;23;20037;-91
2023/01/21 10:11:14;;;;;;;15.60;8.93;;;3.50;99.90;;;;;;6112462;23;20002;-92
2023/01/21 10:13:57;;;;;;;14.50;8.40;;;4.40;99.90;;;;;;6109507;23;20045;-92
2023/01/21 10:17:19;;;;;;;19.35;9.10;;;3.60;99.90;;;;;;6168712;23;20449;-88
2023/01/21 10:19:51;;;;;;;15.50;8.90;;;3.60;99.90;;;;;;6167248;23;20001;-89
2023/01/21 10:25:36;;;;;;;22.60;9.77;;;3.70;99.90;;;;;;6222465;23;20016;-89
2023/01/21 10:28:22;;;;;;;19.15;9.20;;;4.40;99.90;;;;;;6196003;23;20028;-88
2023/01/21 10:34:49;;;;;;;;;;;;;;;;;;;;;
2023/01/21 10:37:42;;;;;;;13.60;8.65;;;3.90;99.90;;;;;;6071201;23;20231;-92
2023/01/21 10:44:39;;;;;;;;;;;;;;;;;;;;;
2023/01/21 10:57:56;;;;;;;12.73;7.38;;;4.10;99.90;;;;;;6111989;23;20018;-93
2023/01/21 11:00:31;;;;;;;13.32;8.30;;;4.00;99.90;;;;;;6111813;23;20122;-91
2023/01/21 11:10:09;;;;;;;12.98;8.07;;;4.50;99.90;;;;;;6008086;23;20011;-89
2023/01/21 11:12:34;;;;;;;15.38;8.15;;;4.20;99.90;;;;;;6100506;23;20003;-90
2023/01/21 11:18:48;;;;;;;;;;;;;;;;;;;;;
2023/01/21 11:24:49;;;;;;;15.75;8.63;;;3.80;99.90;;;;;;5949968;23;20034;-89
2023/01/21 11:27:34;;;;;;;14.25;7.95;;;4.10;99.90;;;;;;6086732;23;20007;-89
2023/01/21 11:31:11;;;;;;;11.70;7.55;;;4.10;99.90;;;;;;6080528;23;20007;-91
2023/01/21 11:33:52;;;;;;;15.90;7.75;;;3.80;99.90;;;;;;6081890;23;20010;-89
2023/01/21 11:36:27;;;;;;;12.77;8.18;;;5.40;99.90;;;;;;6173824;23;20001;-89
2023/01/21 11:39:35;;;;;;;11.80;7.50;;;4.20;99.90;;;;;;6178514;23;20061;-92
2023/01/21 11:42:14;;;;;;;13.13;7.63;;;4.20;99.90;;;;;;6153667;23;20005;-89
2023/01/21 11:45:27;;;;;;;14.23;7.93;;;4.80;99.90;;;;;;6168013;23;20001;-89
2023/01/21 11:48:23;;;;;;;14.38;8.27;;;4.20;99.90;;;;;;6170906;23;20045;-90
2023/01/21 11:50:49;;;;;;;13.23;8.15;;;4.30;99.90;;;;;;6168822;23;20009;-93
2023/01/21 11:53:45;;;;;;;;;;;;;;;;;;;;;
2023/01/21 11:56:33;;;;;;;;;;;;;;;;;;;;;
2023/01/21 11:59:32;;;;;;;12.55;8.55;;;4.90;99.90;;;;;;6165038;23;20005;-91
2023/01/21 12:02:17;;;;;;;;;;;5.00;99.90;;;;;;6199175;23;20005;-90
2023/01/21 12:05:40;;;;;;;12.20;8.07;;;4.10;99.90;;;;;;6112275;23;19929;-89
2023/01/21 12:08:07;;;;;;;12.85;9.13;;;4.10;99.90;;;;;;6100517;23;20011;-89
2023/01/21 12:11:02;;;;;;;11.05;7.97;;;4.10;99.90;;;;;;6069090;23;20030;-90
2023/01/21 12:13:45;;;;;;;9.63;7.78;;;5.20;99.90;;;;;;6103833;23;20006;-90
2023/01/21 12:17:04;;;;;;;11.40;8.55;;;4.20;99.90;;;;;;6107612;23;20048;-90
2023/01/21 12:20:04;;;;;;;11.65;8.18;;;4.10;99.90;;;;;;6108193;23;20007;-89
2023/01/21 12:23:08;;;;;;;10.98;7.55;;;4.00;99.90;;;;;;6018080;23;20477;-89
2023/01/21 12:26:10;;;;;;;12.10;9.35;;;3.80;99.90;;;;;;6024469;23;20032;-89
2023/01/21 12:29:25;;;;;;;16.25;10.55;;;4.00;99.90;;;;;;5996665;24;19996;-92
2023/01/21 12:32:28;;;;;;;14.95;10.45;;;4.00;99.90;;;;;;5992500;24;20019;-90
2023/01/21 12:35:10;;;;;;;11.68;8.05;;;4.20;99.90;;;;;;5969553;23;20004;-93
2023/01/21 12:38:05;;;;;;;12.60;9.00;;;4.00;99.90;;;;;;6042993;23;20018;-90
2023/01/21 12:40:41;;;;;;;14.35;8.52;;;4.00;99.90;;;;;;6043425;23;20005;-90
2023/01/21 12:43:44;;;;;;;;;;;;;;;;;;;;;
2023/01/21 12:46:52;;;;;;;13.20;8.10;;;4.00;99.90;;;;;;5987308;24;20035;-92
2023/01/21 12:50:09;;;;;;;18.08;7.85;;;4.30;99.90;;;;;;6005981;23;20006;-90
2023/01/21 12:53:04;;;;;;;11.52;8.10;;;4.20;99.90;;;;;;6039660;23;20093;-90
2023/01/21 12:58:59;;;;;;;13.60;8.23;;;4.70;99.90;;;;;;6045766;23;20018;-91
2023/01/21 13:02:12;;;;;;;12.95;8.52;;;5.60;99.90;;;;;;6218765;23;20088;-93
2023/01/21 13:08:23;;;;;;;11.93;8.80;;;5.00;99.90;;;;;;6120713;23;20005;-91
2023/01/21 13:11:00;;;;;;;11.65;7.68;;;4.30;99.90;;;;;;6167750;23;20499;-89
2023/01/21 13:13:48;;;;;;;10.38;7.75;;;4.50;99.90;;;;;;6197622;23;20005;-89
2023/01/21 13:16:18;;;;;;;11.55;8.05;;;6.00;99.90;;;;;;6198331;23;20076;-89
2023/01/21 13:19:11;;;;;;;12.40;8.25;;;4.70;99.90;;;;;;6161986;23;20013;-88
2023/01/21 13:22:10;;;;;;;12.25;8.32;;;4.50;99.90;;;;;;6110900;23;20009;-89
2023/01/21 13:25:18;;;;;;;15.18;8.65;;;4.60;99.90;;;;;;6154494;23;20358;-91
2023/01/21 13:27:46;;;;;;;10.88;8.23;;;5.20;99.90;;;;;;6136685;23;20558;-89
2023/01/21 13:30:59;;;;;;;;;;;;;;;;;;;;;
2023/01/21 13:34:12;;;;;;;12.38;8.13;;;4.50;99.90;;;;;;6148995;23;20088;-91
2023/01/21 13:37:31;;;;;;;;;;;;;;;;;;;;;
2023/01/21 13:40:26;;;;;;;9.38;7.70;;;4.60;99.90;;;;;;6135772;23;20102;-91
2023/01/21 13:43:19;;;;;;;9.02;6.95;;;4.50;99.90;;;;;;6163836;23;20002;-89
2023/01/21 13:46:00;;;;;;;10.18;7.53;;;4.60;99.90;;;;;;6155201;23;20005;-92
2023/01/21 13:49:05;;;;;;;10.27;7.00;;;4.60;99.90;;;;;;6156900;23;20008;-92
2023/01/21 13:52:06;;;;;;;9.43;7.13;;;4.60;99.90;;;;;;6156476;23;20006;-90
2023/01/21 13:54:49;;;;;;;9.52;6.80;;;4.60;99.90;;;;;;6143214;23;20002;-92
2023/01/21 13:57:54;;;;;;;8.38;6.35;;;4.50;99.90;;;;;;6151953;23;20020;-93
2023/01/21 14:04:02;;;;;;;9.88;6.60;;;4.60;99.90;;;;;;6035363;23;20003;-92
2023/01/21 14:10:11;;;;;;;;;;;;;;;;;;;;;
2023/01/21 14:13:05;;;;;;;;;;;;;;;;;;;;;
2023/01/21 14:15:53;;;;;;;12.20;6.95;;;4.70;99.90;;;;;;6032864;23;20094;-94
2023/01/21 14:18:59;;;;;;;12.05;7.57;;;4.70;99.90;;;;;;6010140;23;20012;-93
2023/01/21 14:21:56;;;;;;;;;;;;;;;;;;;;;
2023/01/21 14:28:28;;;;;;;;;;;;;;;;;;;;;
2023/01/21 14:31:43;;;;;;;;;;;;;;;;;;;;;
2023/01/21 14:38:42;;;;;;;;;;;;;;;;;;;;;
2023/01/21 14:41:10;;;;;;;8.38;6.13;;;4.70;99.90;;;;;;6211603;23;20075;-89
2023/01/21 14:43:39;;;;;;;12.97;5.37;;;5.10;99.90;;;;;;6185161;23;20091;-90
2023/01/21 14:46:34;;;;;;;8.88;5.70;;;5.30;99.90;;;;;;6184889;23;20083;-89
2023/01/21 14:49:06;;;;;;;9.95;6.53;;;4.90;99.90;;;;;;6161372;23;20035;-90
2023/01/21 14:51:47;;;;;;;7.72;5.85;;;4.60;99.90;;;;;;6185425;23;20345;-90
2023/01/21 14:54:24;;;;;;;7.03;5.35;;;4.80;99.90;;;;;;6186978;23;20012;-90
2023/01/21 14:56:56;;;;;;;9.13;5.53;;;4.60;99.90;;;;;;6211435;23;20568;-90
2023/01/21 14:59:37;;;;;;;10.85;6.38;;;5.90;99.90;;;;;;6185001;23;20437;-92
2023/01/21 15:02:22;;;;;;;8.90;6.68;;;4.80;99.90;;;;;;6212241;23;20008;-90
2023/01/21 15:05:35;;;;;;;;;;;;;;;;;;;;;
2023/01/21 15:11:39;;;;;;;8.60;6.10;;;5.20;99.90;;;;;;6066364;23;20011;-90
2023/01/21 15:14:20;;;;;;;8.18;6.15;;;5.40;99.90;;;;;;6170130;23;20008;-90
2023/01/21 15:16:46;;;;;;;8.27;5.80;;;4.70;99.90;;;;;;6183812;23;20052;-89
2023/01/21 15:19:15;;;;;;;10.20;6.10;;;5.70;99.90;;;;;;6183802;23;20009;-89
2023/01/21 15:21:59;;;;;;;8.40;5.78;;;4.70;99.90;;;;;;6210630;23;20087;-91
2023/01/21 15:25:19;;;;;;;7.57;5.57;;;4.70;99.90;;;;;;6179594;23;20036;-91
2023/01/21 15:28:22;;;;;;;7.43;5.43;;;4.60;99.90;;;;;;6157192;23;20012;-89